Time;durP1;ratioP1;P1;durP2;ratioP2;P2;SDS_P1;SDS_P2;PMS_P1;PMS_P2;Temp;Humidity;BMP_temperature;BMP_pressure;BME280_temperature;BME280_humidity;BME280_pressure;Samples;Min_cycle;Max_cycle;Signal;HPM_P1;HPM_P2
2021/04/13 00:02:34;;;;;;;13.85;4.00;;;;;;;0.61;86.75;102198.63;5050183;28;20105;-72
2021/04/13 00:05:10;;;;;;;11.23;3.40;;;;;;;0.65;86.64;102199.31;5050990;28;20469;-73
2021/04/13 00:07:39;;;;;;;6.45;3.95;;;;;;;0.66;86.83;102199.28;5050716;28;20095;-72
2021/04/13 00:10:14;;;;;;;11.60;5.50;;;;;;;0.68;86.72;102193.94;5049843;28;20124;-72
2021/04/13 00:12:40;;;;;;;7.60;4.60;;;;;;;0.72;86.70;102198.16;5050825;28;20040;-72
2021/04/13 00:15:31;;;;;;;12.38;6.03;;;;;;;0.81;86.47;102197.78;5050097;28;20045;-72
2021/04/13 00:17:58;;;;;;;8.98;4.35;;;;;;;0.86;86.66;102192.31;5049972;28;20063;-72
2021/04/13 00:20:51;;;;;;;8.73;3.55;;;;;;;0.88;86.56;102193.13;5050783;28;20045;-72
2021/04/13 00:23:17;;;;;;;8.48;3.95;;;;;;;0.88;86.63;102195.75;5049927;28;20135;-72
2021/04/13 00:25:51;;;;;;;8.45;4.38;;;;;;;0.91;86.64;102195.59;5049977;28;20041;-72
2021/04/13 00:28:28;;;;;;;8.40;4.30;;;;;;;0.85;86.40;102188.84;5049646;28;20376;-72
2021/04/13 00:30:57;;;;;;;10.57;4.55;;;;;;;0.83;86.51;102194.16;5049476;28;20033;-72
2021/04/13 00:33:26;;;;;;;7.80;3.83;;;;;;;0.83;86.29;102193.31;5050762;28;20045;-72
2021/04/13 00:36:21;;;;;;;6.30;3.60;;;;;;;0.84;86.18;102201.16;5049730;28;20496;-72
2021/04/13 00:38:49;;;;;;;6.53;3.78;;;;;;;0.84;86.39;102184.50;5041493;28;20499;-72
2021/04/13 00:41:20;;;;;;;10.60;4.28;;;;;;;0.87;85.94;102194.91;5049315;28;20048;-72
2021/04/13 00:43:52;;;;;;;10.52;4.05;;;;;;;0.86;85.96;102194.94;5050610;28;20056;-72
2021/04/13 00:46:25;;;;;;;8.48;3.50;;;;;;;0.80;86.23;102196.06;5033152;28;20037;-72
2021/04/13 00:48:52;;;;;;;6.22;3.58;;;;;;;0.75;86.39;102196.28;5050246;28;20029;-72
2021/04/13 00:51:28;;;;;;;10.10;3.33;;;;;;;0.74;86.81;102189.28;5033064;28;20071;-72
2021/04/13 00:54:00;;;;;;;7.78;3.17;;;;;;;0.77;86.78;102194.44;5049512;28;20546;-72
2021/04/13 00:56:26;;;;;;;13.80;3.92;;;;;;;0.76;86.87;102192.72;5050656;28;20366;-72
2021/04/13 00:59:17;;;;;;;9.75;3.45;;;;;;;0.75;86.99;102190.13;5049311;28;20366;-73
2021/04/13 01:01:50;;;;;;;12.30;4.72;;;;;;;0.84;86.68;102197.63;5050109;28;20374;-72
2021/04/13 01:04:28;;;;;;;8.45;3.80;;;;;;;0.75;86.91;102191.00;5050469;28;20838;-73
2021/04/13 01:07:06;;;;;;;17.23;5.65;;;;;;;0.76;87.10;102187.44;5049557;28;20037;-73
2021/04/13 01:09:31;;;;;;;10.82;3.72;;;;;;;0.76;87.41;102192.72;5050409;28;20029;-72
2021/04/13 01:12:02;;;;;;;9.23;3.87;;;;;;;0.79;87.17;102195.19;5036403;23;20028;-72
2021/04/13 01:14:29;;;;;;;15.50;4.78;;;;;;;0.80;87.16;102183.78;5013059;28;20038;-72
2021/04/13 01:16:58;;;;;;;9.60;4.53;;;;;;;0.79;86.88;102197.81;5029561;28;20057;-72
2021/04/13 01:19:43;;;;;;;12.13;5.55;;;;;;;0.79;87.09;102196.97;5029280;28;20049;-72
2021/04/13 01:22:30;;;;;;;13.00;4.80;;;;;;;0.76;87.31;102197.97;5014143;28;20103;-72
2021/04/13 01:25:05;;;;;;;16.55;5.43;;;;;;;0.72;87.33;102195.53;5012919;28;20216;-72
2021/04/13 01:27:30;;;;;;;11.98;5.25;;;;;;;0.74;87.09;102199.78;5029231;28;20042;-72
2021/04/13 01:30:00;;;;;;;14.02;5.45;;;;;;;0.75;87.17;102198.91;5029405;28;20037;-72
2021/04/13 01:32:25;;;;;;;11.63;4.85;;;;;;;0.77;87.39;102190.94;5029438;28;20095;-72
2021/04/13 01:35:07;;;;;;;12.20;5.20;;;;;;;0.74;87.11;102198.94;5013865;28;20047;-72
2021/04/13 01:40:32;;;;;;;11.45;4.70;;;;;;;0.70;87.40;102192.94;5013826;28;20030;-72
2021/04/13 01:42:58;;;;;;;14.30;5.28;;;;;;;0.67;87.39;102200.13;5029141;28;20042;-72
2021/04/13 01:45:27;;;;;;;11.88;4.68;;;;;;;0.61;87.68;102196.84;5029236;28;20033;-72
2021/04/13 01:47:54;;;;;;;18.98;6.82;;;;;;;0.68;87.97;102186.03;5028735;28;20038;-72
2021/04/13 01:50:30;;;;;;;12.60;4.80;;;;;;;0.67;87.93;102186.97;5029043;28;20037;-72
2021/04/13 01:53:22;;;;;;;;;;;;;;;0.65;87.89;102199.31;5013962;28;20049;-72
2021/04/13 01:55:59;;;;;;;12.82;4.65;;;;;;;0.64;88.10;102190.59;5027755;28;20290;-72
2021/04/13 01:58:39;;;;;;;12.73;4.75;;;;;;;0.62;88.29;102195.06;5028413;28;20190;-72
2021/04/13 02:01:31;;;;;;;14.63;4.28;;;;;;;0.65;88.14;102189.66;5013167;28;20038;-72
2021/04/13 02:04:23;;;;;;;9.07;4.90;;;;;;;0.65;88.16;102189.66;5013153;28;20038;-72
2021/04/13 02:07:17;;;;;;;16.48;5.40;;;;;;;0.61;88.17;102186.31;5011954;28;20377;-72
2021/04/13 02:09:48;;;;;;;14.52;5.03;;;;;;;0.55;88.34;102177.81;5012036;28;20116;-72
2021/04/13 02:12:23;;;;;;;15.43;5.93;;;;;;;0.60;88.37;102178.50;5028469;28;20081;-72
2021/04/13 02:14:54;;;;;;;9.52;4.72;;;;;;;0.62;88.26;102188.00;5028615;28;20096;-72
2021/04/13 02:17:43;;;;;;;10.98;4.90;;;;;;;0.61;88.16;102186.31;5013019;28;20426;-72
2021/04/13 02:20:12;;;;;;;14.75;5.75;;;;;;;0.59;88.14;102192.56;5012669;28;20480;-72
2021/04/13 02:22:46;;;;;;;13.02;5.00;;;;;;;0.63;88.29;102191.50;5012961;28;20038;-72
2021/04/13 02:25:16;;;;;;;23.95;6.43;;;;;;;0.62;88.43;102187.16;5012856;28;20045;-72
2021/04/13 02:27:44;;;;;;;8.43;5.25;;;;;;;0.58;88.37;102188.19;5012370;28;20041;-72
2021/04/13 02:30:17;;;;;;;13.55;4.85;;;;;;;0.62;88.37;102184.53;5012729;28;20470;-72
2021/04/13 02:32:48;;;;;;;16.08;5.47;;;;;;;0.58;88.44;102190.84;5012765;28;20041;-72
2021/04/13 02:35:18;;;;;;;18.80;6.20;;;;;;;0.57;88.55;102191.75;5012562;28;20037;-72
2021/04/13 02:37:51;;;;;;;16.27;5.80;;;;;;;0.58;88.64;102199.56;5012221;28;20235;-72
2021/04/13 02:40:19;;;;;;;15.82;5.82;;;;;;;0.56;88.57;102198.81;5012493;28;20117;-72
2021/04/13 02:42:48;;;;;;;16.40;7.05;;;;;;;0.63;88.71;102194.13;5012341;28;20447;-72
2021/04/13 02:45:34;;;;;;;17.33;6.60;;;;;;;0.65;88.60;102194.91;5012466;28;20030;-72
2021/04/13 02:48:17;;;;;;;19.00;5.72;;;;;;;0.65;88.49;102204.59;5027585;28;20451;-72
2021/04/13 02:50:46;;;;;;;13.55;5.43;;;;;;;0.71;88.54;102202.56;5012405;28;20037;-72
2021/04/13 02:53:15;;;;;;;30.95;7.25;;;;;;;0.73;88.48;102203.34;5012405;28;20041;-72
2021/04/13 02:55:49;;;;;;;15.63;6.78;;;;;;;0.73;88.39;102202.50;5011596;28;20033;-72
2021/04/13 02:58:17;;;;;;;14.25;6.18;;;;;;;0.67;88.37;102193.09;5011909;28;20038;-72
2021/04/13 03:00:45;;;;;;;11.25;5.28;;;;;;;0.68;88.59;102193.94;5011249;28;20045;-72
2021/04/13 03:03:37;;;;;;;14.32;5.88;;;;;;;0.72;88.75;102196.38;5011140;28;20061;-72
2021/04/13 03:06:04;;;;;;;9.50;4.95;;;;;;;0.74;88.79;102196.31;4988188;28;20053;-72
2021/04/13 03:08:35;;;;;;;17.48;6.03;;;;;;;0.75;88.68;102195.38;5011893;28;20113;-72
2021/04/13 03:11:15;;;;;;;12.40;5.57;;;;;;;0.70;88.84;102189.47;5012032;28;20052;-72
2021/04/13 03:13:42;;;;;;;16.85;5.63;;;;;;;0.70;88.63;102187.69;5011922;28;20445;-72
2021/04/13 03:16:10;;;;;;;18.40;6.13;;;;;;;0.68;88.56;102189.56;5011823;28;20451;-72
2021/04/13 03:18:45;;;;;;;18.85;6.43;;;;;;;0.71;88.64;102189.41;5011625;28;20038;-72
2021/04/13 03:21:19;;;;;;;13.18;6.07;;;;;;;0.70;88.65;102194.72;5011874;28;20045;-72
2021/04/13 03:23:46;;;;;;;14.02;5.30;;;;;;;0.68;88.60;102184.28;5027282;28;20060;-72
2021/04/13 03:26:24;;;;;;;12.32;5.38;;;;;;;0.64;88.57;102193.22;5010737;28;20069;-71
2021/04/13 03:28:56;;;;;;;18.20;6.18;;;;;;;0.64;88.70;102185.34;5010527;28;20030;-71
2021/04/13 03:31:31;;;;;;;17.13;6.05;;;;;;;0.62;88.92;102184.53;5010577;28;20442;-71
2021/04/13 03:33:57;;;;;;;12.13;5.40;;;;;;;0.60;88.74;102189.00;5026993;28;20069;-71
2021/04/13 03:36:24;;;;;;;14.27;5.82;;;;;;;0.60;88.77;102186.38;5026854;28;20323;-71
2021/04/13 03:38:55;;;;;;;17.02;6.68;;;;;;;0.60;89.00;102186.38;5011264;28;20478;-70
2021/04/13 03:41:22;;;;;;;15.45;7.43;;;;;;;0.59;89.08;102188.16;5011524;28;20370;-71
2021/04/13 03:43:59;;;;;;;16.73;7.72;;;;;;;0.56;89.11;102185.66;5011438;28;20034;-71
2021/04/13 03:46:29;;;;;;;13.93;6.40;;;;;;;0.56;89.29;102192.66;5011527;28;20042;-71
2021/04/13 03:48:55;;;;;;;17.08;7.28;;;;;;;0.56;89.14;102200.53;5010944;28;20034;-71
2021/04/13 03:51:27;;;;;;;18.77;6.25;;;;;;;0.63;89.31;102197.63;5026729;28;20128;-71
2021/04/13 03:53:53;;;;;;;20.88;6.68;;;;;;;0.73;89.39;102203.34;5026825;28;20034;-71
2021/04/13 03:56:21;;;;;;;18.30;5.38;;;;;;;0.77;89.05;102191.81;5011561;28;20048;-71
2021/04/13 03:58:50;;;;;;;13.65;5.40;;;;;;;0.76;88.80;102195.34;5010920;28;20473;-72
2021/04/13 04:01:21;;;;;;;17.30;7.78;;;;;;;0.77;88.73;102199.69;5011185;28;20107;-71
2021/04/13 04:03:55;;;;;;;11.55;5.28;;;;;;;0.78;88.66;102198.75;5011332;28;20129;-71
2021/04/13 04:06:40;;;;;;;15.32;5.53;;;;;;;0.78;88.50;102192.66;5011242;28;20371;-71
2021/04/13 04:09:25;;;;;;;11.55;4.18;;;;;;;0.78;88.44;102190.03;5011040;28;20108;-71
2021/04/13 04:11:50;;;;;;;11.32;4.32;;;;;;;0.78;88.25;102198.75;5026624;28;20477;-71
2021/04/13 04:14:22;;;;;;;6.00;3.23;;;;;;;0.74;88.40;102205.06;5010300;28;20056;-71
2021/04/13 04:16:48;;;;;;;10.73;4.28;;;;;;;0.79;88.42;102200.44;5026729;28;20273;-71
2021/04/13 04:19:22;;;;;;;8.65;3.92;;;;;;;0.85;88.76;102207.25;5010872;28;20073;-71
2021/04/13 04:22:02;;;;;;;17.05;4.90;;;;;;;0.91;88.45;102204.34;5011267;28;20363;-71
2021/04/13 04:24:34;;;;;;;12.13;3.65;;;;;;;0.97;88.49;102205.88;5011240;28;20340;-71
2021/04/13 04:27:17;;;;;;;12.98;3.55;;;;;;;0.99;88.37;102209.31;5011076;28;20363;-71
2021/04/13 04:29:46;;;;;;;11.27;4.95;;;;;;;1.01;88.21;102205.69;5026489;28;20034;-71
2021/04/13 04:32:20;;;;;;;7.10;3.30;;;;;;;1.07;87.92;102204.56;5011187;28;20045;-71
2021/04/13 04:34:45;;;;;;;13.35;4.28;;;;;;;0.97;87.79;102208.50;5010186;28;20382;-72
2021/04/13 04:37:26;;;;;;;12.33;5.07;;;;;;;0.95;88.13;102215.59;5009217;28;20034;-72
2021/04/13 04:40:20;;;;;;;8.77;4.35;;;;;;;0.89;87.98;102221.13;5010692;28;20095;-72
2021/04/13 04:42:48;;;;;;;15.85;5.18;;;;;;;0.91;87.98;102217.50;5010164;28;20034;-71
2021/04/13 04:45:37;;;;;;;15.77;5.30;;;;;;;0.96;87.87;102226.06;5014881;28;20447;-71
2021/04/13 04:48:34;;;;;;;7.28;3.90;;;;;;;0.97;87.71;102235.66;5030238;28;20041;-71
2021/04/13 04:51:06;;;;;;;14.65;4.25;;;;;;;0.97;87.92;102235.66;5010718;28;20046;-71
2021/04/13 04:53:33;;;;;;;10.63;4.47;;;;;;;1.06;87.84;102234.44;5014635;28;20451;-71
2021/04/13 04:56:00;;;;;;;14.88;5.55;;;;;;;1.07;87.55;102235.28;5013842;28;20077;-71
2021/04/13 04:58:26;;;;;;;16.27;5.15;;;;;;;1.10;87.35;102238.66;5029863;28;20049;-71
2021/04/13 05:00:53;;;;;;;13.30;4.47;;;;;;;1.11;86.97;102235.09;5030247;28;20033;-71
2021/04/13 05:03:19;;;;;;;19.10;5.20;;;;;;;1.13;87.21;102243.78;5013633;28;20034;-71
2021/04/13 05:05:45;;;;;;;10.38;4.85;;;;;;;1.17;86.84;102244.47;5013611;28;20030;-71
2021/04/13 05:08:10;;;;;;;11.88;5.40;;;;;;;1.21;86.64;102251.31;5014209;28;20481;-72
2021/04/13 05:10:36;;;;;;;12.75;5.45;;;;;;;1.16;86.39;102248.88;5030138;28;20037;-72
2021/04/13 05:13:01;;;;;;;23.75;6.38;;;;;;;1.22;86.33;102242.53;5029743;28;20038;-72
2021/04/13 05:15:27;;;;;;;16.87;6.17;;;;;;;1.19;86.39;102248.75;5014474;28;20041;-72
2021/04/13 05:17:52;;;;;;;12.77;5.63;;;;;;;1.29;86.37;102251.00;5014113;28;20045;-72
2021/04/13 05:20:18;;;;;;;14.47;4.30;;;;;;;1.32;86.49;102250.88;5029844;28;20427;-72
2021/04/13 05:22:43;;;;;;;8.02;3.90;;;;;;;1.40;86.04;102251.38;5029817;28;20084;-72
2021/04/13 05:25:10;;;;;;;8.82;3.70;;;;;;;1.46;85.22;102245.88;5014335;28;20378;-72
2021/04/13 05:27:35;;;;;;;8.18;4.20;;;;;;;1.46;85.03;102256.41;5013071;28;20534;-72
2021/04/13 05:30:01;;;;;;;8.13;3.97;;;;;;;1.64;85.25;102262.66;5013185;28;20048;-72
2021/04/13 05:32:26;;;;;;;8.33;3.17;;;;;;;1.77;84.02;102261.16;5014138;28;20061;-72
2021/04/13 05:34:51;;;;;;;11.40;4.47;;;;;;;1.83;84.18;102270.59;5012953;28;20364;-72
2021/04/13 05:37:17;;;;;;;17.10;5.40;;;;;;;1.62;83.88;102275.03;5013905;28;20033;-72
2021/04/13 05:39:42;;;;;;;15.15;3.65;;;;;;;1.75;84.58;102278.81;5029056;28;20566;-71
2021/04/13 05:42:19;;;;;;;11.83;3.93;;;;;;;1.76;83.98;102282.31;5012915;28;20430;-71
2021/04/13 05:44:44;;;;;;;13.52;4.80;;;;;;;1.76;84.03;102282.31;5029448;28;20117;-72
2021/04/13 05:47:12;;;;;;;13.38;4.68;;;;;;;1.68;84.42;102294.00;5029405;28;20140;-72
2021/04/13 05:49:38;;;;;;;15.55;4.43;;;;;;;1.81;84.56;102304.88;5012407;28;20099;-72
2021/04/13 05:52:04;;;;;;;11.90;4.47;;;;;;;1.98;84.62;102306.75;5012878;28;20042;-72
2021/04/13 05:54:29;;;;;;;13.85;5.95;;;;;;;2.11;83.94;102302.66;5013240;28;20038;-72
2021/04/13 05:56:54;;;;;;;13.47;4.73;;;;;;;2.27;83.64;102320.38;5013274;28;20092;-72
2021/04/13 05:59:20;;;;;;;14.70;4.83;;;;;;;2.20;83.07;102316.31;5012167;28;20033;-72
2021/04/13 06:01:48;;;;;;;11.53;5.27;;;;;;;2.11;82.88;102323.72;5029134;28;20140;-72
2021/04/13 06:04:14;;;;;;;19.48;5.13;;;;;;;2.18;83.20;102316.41;5013349;28;20111;-72
2021/04/13 06:06:40;;;;;;;11.38;4.93;;;;;;;2.21;83.52;102328.59;5012522;28;20463;-72
2021/04/13 06:09:05;;;;;;;15.27;4.50;;;;;;;2.12;83.57;102316.69;5013321;28;20355;-72
2021/04/13 06:11:31;;;;;;;9.07;4.10;;;;;;;2.08;84.13;102318.59;5013337;28;20447;-71
2021/04/13 06:13:59;;;;;;;11.15;5.03;;;;;;;2.02;85.41;102323.28;5012162;28;20324;-72
2021/04/13 06:16:32;;;;;;;13.55;4.15;;;;;;;2.17;85.41;102316.47;5012388;28;20116;-72
2021/04/13 06:18:57;;;;;;;17.45;5.18;;;;;;;3.09;86.09;102320.00;5012695;28;20044;-72
2021/04/13 06:21:22;;;;;;;13.90;4.80;;;;;;;4.23;79.41;102318.50;5013132;28;20096;-73
2021/04/13 06:23:48;;;;;;;11.77;4.50;;;;;;;5.04;75.67;102305.19;5013111;28;20029;-72
2021/04/13 06:26:13;;;;;;;5.67;2.70;;;;;;;4.74;75.46;102317.53;5012078;28;20351;-72
2021/04/13 06:28:38;;;;;;;9.80;4.13;;;;;;;4.99;74.94;102323.16;5028183;28;20484;-72
2021/04/13 06:31:04;;;;;;;17.00;3.03;;;;;;;5.42;73.52;102311.84;5013114;28;20459;-72
2021/04/13 06:33:30;;;;;;;8.00;2.73;;;;;;;5.50;72.12;102322.81;5012798;28;20490;-72
2021/04/13 06:35:57;;;;;;;8.60;2.88;;;;;;;5.51;71.84;102321.91;5012887;28;20052;-72
2021/04/13 06:38:23;;;;;;;;;;;;;;;5.54;71.15;102319.06;5012989;28;20101;-72
2021/04/13 06:41:07;;;;;;;;;;;;;;;5.58;70.39;102322.38;5028862;28;20414;-72
2021/04/13 06:44:04;;;;;;;8.48;2.67;;;;;;;6.08;69.01;102335.25;5012740;28;20011;-72
2021/04/13 06:46:33;;;;;;;6.88;2.33;;;;;;;6.18;69.80;102330.25;5028255;28;20038;-72
2021/04/13 06:49:07;;;;;;;10.93;2.63;;;;;;;6.17;68.65;102332.97;5012405;28;20078;-72
2021/04/13 06:51:44;;;;;;;7.95;2.55;;;;;;;6.38;67.04;102330.78;5013119;28;20065;-72
2021/04/13 06:54:27;;;;;;;9.57;2.40;;;;;;;6.64;67.89;102342.41;5012435;28;20069;-72
2021/04/13 06:57:15;;;;;;;18.17;4.28;;;;;;;6.45;67.26;102342.72;5028076;28;20038;-72
2021/04/13 07:00:01;;;;;;;10.30;2.20;;;;;;;6.08;67.54;102343.19;5027719;28;20175;-72
2021/04/13 07:03:09;;;;;;;12.13;3.33;;;;;;;6.08;69.04;102342.34;5028015;28;20096;-72
2021/04/13 07:05:45;;;;;;;8.13;1.95;;;;;;;5.86;69.55;102350.75;5011437;28;20061;-72
2021/04/13 07:08:25;;;;;;;6.68;2.33;;;;;;;5.55;71.20;102346.41;5011205;28;20084;-72
2021/04/13 07:10:56;;;;;;;13.35;2.60;;;;;;;5.63;71.06;102349.47;5027784;28;20100;-72
2021/04/13 07:13:50;;;;;;;9.13;2.65;;;;;;;5.12;73.07;102351.56;5011052;28;20502;-71
2021/04/13 07:16:22;;;;;;;13.13;2.75;;;;;;;4.98;73.39;102347.03;5012293;28;20123;-71
2021/04/13 07:19:12;;;;;;;24.17;3.10;;;;;;;6.06;71.40;102342.47;5027369;28;20459;-71
2021/04/13 07:21:50;;;;;;;23.52;3.67;;;;;;;6.36;68.02;102344.16;5012114;28;20037;-71
2021/04/13 07:24:30;;;;;;;11.13;2.42;;;;;;;6.25;69.40;102352.78;5012065;28;20034;-72
2021/04/13 07:27:07;;;;;;;12.55;2.20;;;;;;;5.67;71.02;102351.00;5012040;28;20129;-72
2021/04/13 07:29:45;;;;;;;19.85;4.05;;;;;;;5.93;69.35;102346.78;5011575;28;20510;-72
2021/04/13 07:32:18;;;;;;;11.30;3.65;;;;;;;5.83;69.00;102351.78;5027463;28;20188;-72
2021/04/13 07:34:45;;;;;;;12.90;2.85;;;;;;;5.93;70.07;102357.38;5027328;28;20584;-71
2021/04/13 07:37:33;;;;;;;13.52;2.70;;;;;;;6.28;69.07;102349.09;5011795;28;20045;-71
2021/04/13 07:40:05;;;;;;;10.00;2.17;;;;;;;7.06;67.61;102354.72;5011578;28;20041;-71
2021/04/13 07:42:35;;;;;;;21.17;2.90;;;;;;;6.51;67.56;102360.91;5010865;28;20842;-71
2021/04/13 07:45:09;;;;;;;13.30;3.85;;;;;;;6.03;69.25;102360.34;5026913;28;20041;-71
2021/04/13 07:47:49;;;;;;;11.38;2.78;;;;;;;6.92;67.98;102354.75;5010522;28;20114;-71
2021/04/13 07:50:17;;;;;;;17.25;2.97;;;;;;;6.49;68.51;102366.31;5027240;28;20040;-72
2021/04/13 07:52:58;;;;;;;20.60;3.58;;;;;;;6.60;69.12;102359.47;5010557;28;20049;-71
2021/04/13 07:55:44;;;;;;;18.00;2.25;;;;;;;7.11;65.75;102355.25;5011621;28;20435;-71
2021/04/13 07:58:28;;;;;;;;;;;;;;;7.61;64.40;102351.03;5011659;28;20100;-71
2021/04/13 08:00:53;;;;;;;10.13;1.92;;;;;;;7.12;62.80;102356.97;5010402;28;19975;-71
2021/04/13 08:03:34;;;;;;;19.03;1.83;;;;;;;7.08;62.25;102360.78;5011588;28;20412;-71
2021/04/13 08:06:24;;;;;;;7.07;1.83;;;;;;;6.78;62.56;102374.22;5011419;28;20033;-71
2021/04/13 08:09:24;;;;;;;4.28;1.23;;;;;;;6.38;63.52;102371.44;5026665;28;20030;-71
2021/04/13 08:12:18;;;;;;;1.10;0.40;;;;;;;5.76;63.86;102369.00;5011354;28;20088;-71
2021/04/13 08:14:50;;;;;;;1.73;0.60;;;;;;;5.72;63.96;102378.06;5006299;28;20539;-72
2021/04/13 08:17:23;;;;;;;3.47;0.90;;;;;;;5.63;64.75;102374.16;5011393;28;20085;-71
2021/04/13 08:20:07;;;;;;;6.80;1.45;;;;;;;6.51;65.22;102380.34;5029791;28;20386;-71
2021/04/13 08:22:58;;;;;;;16.55;2.13;;;;;;;6.51;64.50;102400.72;5014171;28;20398;-71
2021/04/13 08:25:44;;;;;;;10.93;2.42;;;;;;;5.38;69.16;102397.72;5029245;28;20034;-71
2021/04/13 08:28:35;;;;;;;9.88;2.22;;;;;;;4.44;71.79;102381.75;5013432;28;20170;-71
2021/04/13 08:34:35;;;;;;;18.90;2.58;;;;;;;4.35;74.12;102393.69;5013526;28;20069;-73
2021/04/13 08:37:15;;;;;;;16.20;2.60;;;;;;;5.42;73.57;102384.22;5013376;28;20042;-73
2021/04/13 08:40:07;;;;;;;16.85;2.05;;;;;;;6.73;69.66;102374.50;5030205;28;20033;-73
2021/04/13 08:42:44;;;;;;;8.40;2.05;;;;;;;7.41;64.61;102380.75;5014793;28;20052;-73
2021/04/13 08:45:27;;;;;;;7.85;2.50;;;;;;;8.17;64.70;102373.81;5014154;28;20061;-73
2021/04/13 08:48:00;;;;;;;13.00;2.75;;;;;;;9.02;62.91;102374.84;5014743;28;20113;-73
2021/04/13 08:50:38;;;;;;;8.57;2.88;;;;;;;9.48;61.11;102370.56;5030365;28;20041;-73
2021/04/13 08:53:24;;;;;;;12.98;2.78;;;;;;;8.21;63.29;102380.63;5014665;28;20477;-73
2021/04/13 08:55:49;;;;;;;18.25;3.92;;;;;;;7.03;67.85;102385.94;5014823;28;20363;-73
2021/04/13 08:58:16;;;;;;;15.07;2.70;;;;;;;6.12;68.11;102397.75;5029091;28;20057;-72
2021/04/13 09:00:49;;;;;;;16.52;3.00;;;;;;;5.48;73.00;102402.41;5013078;28;20121;-73
2021/04/13 09:03:24;;;;;;;13.13;2.15;;;;;;;5.33;74.36;102402.44;5013031;28;20065;-73
2021/04/13 09:06:09;;;;;;;19.23;3.10;;;;;;;6.73;72.10;102402.88;5028531;28;20119;-73
2021/04/13 09:08:48;;;;;;;10.77;2.10;;;;;;;7.56;68.94;102395.69;5012646;28;20526;-73
2021/04/13 09:11:29;;;;;;;8.82;1.55;;;;;;;8.50;66.97;102386.63;5012843;28;20181;-74
2021/04/13 09:14:11;;;;;;;13.63;2.67;;;;;;;8.67;63.50;102390.72;5013486;28;20119;-73
2021/04/13 09:16:42;;;;;;;10.30;2.08;;;;;;;8.65;63.96;102390.00;5014524;28;20569;-73
2021/04/13 09:19:20;;;;;;;15.95;2.10;;;;;;;9.26;64.18;102390.00;5013831;28;20033;-73
2021/04/13 09:21:51;;;;;;;6.60;1.83;;;;;;;9.43;60.00;102388.72;5014192;28;20037;-72
2021/04/13 09:24:40;;;;;;;13.57;2.58;;;;;;;9.64;57.91;102388.94;5029665;28;20053;-73
2021/04/13 09:27:36;;;;;;;6.38;1.70;;;;;;;9.67;58.63;102384.22;5029659;28;20375;-73
2021/04/13 09:30:17;;;;;;;5.63;1.30;;;;;;;10.77;57.23;102384.59;5013102;28;20132;-73
2021/04/13 09:32:45;;;;;;;9.48;1.80;;;;;;;11.23;59.94;102375.47;5014061;28;20069;-73
2021/04/13 09:35:34;;;;;;;5.63;1.80;;;;;;;11.46;55.37;102375.38;5014068;28;20038;-71
2021/04/13 09:38:39;;;;;;;9.57;1.75;;;;;;;11.83;52.64;102367.78;5013650;28;20068;-71
2021/04/13 09:41:18;;;;;;;14.70;2.70;;;;;;;11.60;52.92;102369.72;5013110;28;20373;-71
2021/04/13 09:44:27;;;;;;;14.07;3.10;;;;;;;12.31;51.28;102366.34;5029376;28;20041;-71
2021/04/13 09:47:13;;;;;;;14.32;2.85;;;;;;;11.09;53.53;102363.25;5029164;28;20040;-71
2021/04/13 09:50:04;;;;;;;10.57;2.22;;;;;;;10.90;52.91;102360.38;5013326;28;20060;-71
2021/04/13 09:52:50;;;;;;;13.32;1.85;;;;;;;10.31;52.96;102358.88;5013779;28;20733;-70
2021/04/13 09:55:34;;;;;;;9.80;2.47;;;;;;;10.72;52.77;102360.94;5012737;28;20058;-71
2021/04/13 09:58:26;;;;;;;8.93;2.10;;;;;;;10.98;52.50;102355.28;5012886;28;20109;-71
2021/04/13 10:01:26;;;;;;;13.60;2.33;;;;;;;10.81;54.04;102359.31;5012584;28;20121;-71
2021/04/13 10:04:06;;;;;;;11.13;2.30;;;;;;;11.54;50.62;102372.91;4993347;28;20046;-70
2021/04/13 10:06:37;;;;;;;11.40;2.72;;;;;;;10.39;53.11;102380.47;5012587;28;20072;-71
2021/04/13 10:09:23;;;;;;;12.02;2.40;;;;;;;8.71;56.52;102378.03;5012937;28;20033;-71
2021/04/13 10:12:17;;;;;;;;;;;;;;;7.95;58.10;102380.63;5029285;28;20045;-71
2021/04/13 10:15:01;;;;;;;9.88;1.73;;;;;;;9.43;54.53;102372.75;5012413;28;20231;-70
2021/04/13 10:17:31;;;;;;;3.83;1.52;;;;;;;10.34;51.18;102366.66;5013078;28;20053;-72
2021/04/13 10:20:31;;;;;;;10.73;1.98;;;;;;;10.79;49.63;102366.59;5012967;28;20030;-72
2021/04/13 10:23:30;;;;;;;8.70;2.45;;;;;;;11.19;48.39;102360.66;5028615;28;20469;-72
2021/04/13 10:26:22;;;;;;;11.15;2.47;;;;;;;11.56;48.01;102349.56;5013019;28;20128;-70
2021/04/13 10:29:18;;;;;;;9.57;2.15;;;;;;;12.21;45.42;102356.44;5028190;28;20069;-70
2021/04/13 10:32:06;;;;;;;11.82;2.00;;;;;;;11.54;48.43;102336.34;5013176;28;20067;-70
2021/04/13 10:35:05;;;;;;;9.77;1.75;;;;;;;11.87;46.92;102346.94;5012841;28;20045;-70
2021/04/13 10:38:05;;;;;;;10.68;2.05;;;;;;;12.09;45.13;102333.44;5028230;28;20079;-70
2021/04/13 10:41:05;;;;;;;9.38;2.58;;;;;;;12.28;45.15;102324.63;5001715;28;20046;-70
2021/04/13 10:43:45;;;;;;;10.40;3.13;;;;;;;13.09;43.17;102336.09;5012689;28;20044;-70
2021/04/13 10:46:39;;;;;;;10.90;2.35;;;;;;;11.41;44.16;102325.81;5011451;28;20383;-70
2021/04/13 10:49:13;;;;;;;9.77;1.60;;;;;;;11.82;42.63;102329.47;5012350;28;20362;-71
2021/04/13 10:52:17;;;;;;;11.38;1.90;;;;;;;12.47;40.29;102321.16;5028028;28;20034;-70
2021/04/13 10:54:59;;;;;;;8.38;1.60;;;;;;;12.75;39.18;102332.09;5012608;28;20037;-72
2021/04/13 10:57:52;;;;;;;9.68;2.75;;;;;;;12.42;41.17;102328.78;5012277;28;20081;-72
2021/04/13 11:00:47;;;;;;;10.48;1.30;;;;;;;12.82;38.12;102333.25;5027872;28;20434;-72
2021/04/13 11:03:31;;;;;;;6.90;2.00;;;;;;;9.19;45.30;102357.63;5012382;28;20029;-72
2021/04/13 11:06:05;;;;;;;6.30;1.60;;;;;;;8.57;52.24;102347.94;5011097;28;20037;-71
2021/04/13 11:09:06;;;;;;;4.97;1.20;;;;;;;7.78;56.85;102341.06;5011929;28;20038;-71
2021/04/13 11:11:57;;;;;;;13.82;2.20;;;;;;;8.73;53.75;102349.50;5012200;28;20371;-71
2021/04/13 11:14:43;;;;;;;5.63;1.77;;;;;;;8.66;54.62;102347.28;5012288;28;20381;-72
2021/04/13 11:17:48;;;;;;;7.68;1.55;;;;;;;7.53;54.75;102363.97;5027541;28;20038;-72
2021/04/13 11:20:35;;;;;;;8.10;1.65;;;;;;;6.57;56.21;102357.84;5011231;28;20038;-71
2021/04/13 11:23:52;;;;;;;9.40;1.17;;;;;;;6.87;58.60;102359.50;5011909;28;20076;-72
2021/04/13 11:26:51;;;;;;;5.70;1.15;;;;;;;6.95;57.80;102379.31;5010661;28;20521;-72
2021/04/13 11:29:58;;;;;;;12.05;3.13;;;;;;;6.23;64.13;102412.19;5011579;28;20038;-72
2021/04/13 11:32:57;;;;;;;9.00;1.90;;;;;;;4.53;71.24;102410.34;5011892;28;20088;-73
2021/04/13 11:35:39;;;;;;;7.68;1.40;;;;;;;4.38;72.35;102405.91;5011695;28;20466;-73
2021/04/13 11:38:17;;;;;;;12.18;2.22;;;;;;;4.30;74.75;102397.50;5010434;28;20084;-73
2021/04/13 11:41:09;;;;;;;7.50;1.70;;;;;;;4.68;73.70;102391.94;5027313;28;20065;-73
2021/04/13 11:43:49;;;;;;;7.95;1.48;;;;;;;4.91;73.26;102374.78;5010901;28;20079;-73
2021/04/13 11:46:22;;;;;;;10.93;1.40;;;;;;;4.93;71.09;102373.78;5010759;28;20068;-72
2021/04/13 11:48:50;;;;;;;13.88;1.48;;;;;;;5.61;70.65;102372.53;5010344;28;20034;-72
2021/04/13 11:51:28;;;;;;;9.00;1.58;;;;;;;6.90;70.01;102365.47;5011350;28;20033;-72
2021/04/13 11:53:55;;;;;;;10.13;1.52;;;;;;;8.04;65.73;102364.03;5009990;28;20120;-73
2021/04/13 11:56:23;;;;;;;14.63;1.45;;;;;;;8.87;62.17;102359.97;5011361;28;20447;-72
2021/04/13 11:59:17;;;;;;;2.05;1.13;;;;;;;9.55;60.66;102347.81;5026496;28;20157;-73
2021/04/13 12:01:43;;;;;;;9.32;1.48;;;;;;;10.02;58.99;102359.34;5027029;28;20429;-73
2021/04/13 12:04:11;;;;;;;15.90;2.38;;;;;;;10.56;56.12;102350.63;5027069;28;20133;-73
2021/04/13 12:07:04;;;;;;;4.22;1.40;;;;;;;10.35;54.42;102353.19;5026887;28;20517;-73
2021/04/13 12:09:47;;;;;;;8.98;2.00;;;;;;;10.52;54.59;102351.84;5010178;28;20029;-74
2021/04/13 12:12:31;;;;;;;8.38;1.48;;;;;;;10.42;54.82;102329.53;5026856;28;20057;-74
2021/04/13 12:15:03;;;;;;;5.07;1.50;;;;;;;10.40;53.94;102349.31;5026663;28;20454;-74
2021/04/13 12:17:45;;;;;;;5.65;1.60;;;;;;;10.56;53.89;102344.44;5026301;28;20045;-74
2021/04/13 12:20:30;;;;;;;8.05;1.00;;;;;;;10.31;50.88;102346.38;5011166;28;20038;-73
2021/04/13 12:23:04;;;;;;;5.63;1.20;;;;;;;10.56;47.63;102329.25;5010904;28;20069;-74